page 4910 of 1014796 registered users

eBook PostsUsers

  1. 0polocard1 registered @ 2012-12-13 12:20:26, last login @ 2012-12-13 12:20:26
  2. 0maplebutane32 registered @ 2012-12-13 12:20:34, last login @ 2012-12-13 12:20:34
  3. 0DianeBrice registered @ 2012-12-13 12:22:11, last login @ 2012-12-13 12:22:11
  4. 0lijikdzdsg77 registered @ 2012-12-13 12:25:08, last login @ 2012-12-13 12:25:08
  5. 0friendstreet1 registered @ 2012-12-13 12:26:05, last login @ 2012-12-13 12:26:05
  6. 0bellscent9 registered @ 2012-12-13 12:26:32, last login @ 2012-12-13 12:26:32
  7. 0repairoval4 registered @ 2012-12-13 12:26:55, last login @ 2012-12-13 12:50:26
  8. 0lisaself5 registered @ 2012-12-13 12:27:09, last login @ 2012-12-13 12:27:09
  9. 0russia8pea registered @ 2012-12-13 12:27:19, last login @ 2012-12-13 12:27:19
  10. 0zxjugc02 registered @ 2012-12-13 12:27:49, last login @ 2012-12-13 12:27:49
  11. 0classradio88 registered @ 2012-12-13 12:28:33, last login @ 2012-12-13 12:28:33
  12. 0spongepalm27 registered @ 2012-12-13 12:28:59, last login @ 2012-12-13 12:28:59
  13. 0stream3pasta registered @ 2012-12-13 12:29:16, last login @ 2012-12-13 12:29:16
  14. 0hallelbow10 registered @ 2012-12-13 12:29:28, last login @ 2012-12-13 12:29:28
  15. 0milkoven8 registered @ 2012-12-13 12:32:29, last login @ 2012-12-13 12:32:29
  16. 0soda9panty registered @ 2012-12-13 12:32:58, last login @ 2012-12-13 12:32:58
  17. 0beef9arm registered @ 2012-12-13 12:34:01, last login @ 2012-12-13 12:34:01
  18. 0battle34song registered @ 2012-12-13 12:34:39, last login @ 2012-12-13 12:34:39
  19. 0melodymetal37 registered @ 2012-12-13 12:35:46, last login @ 2012-12-13 12:35:46
  20. 0clambongo14 registered @ 2012-12-13 12:35:56, last login @ 2012-12-13 12:35:56
  21. 0pasta0woman registered @ 2012-12-13 12:36:56, last login @ 2012-12-13 12:36:56
  22. 0dewstore46 registered @ 2012-12-13 12:37:09, last login @ 2012-12-13 12:37:09
  23. 0swingopen81 registered @ 2012-12-13 12:38:12, last login @ 2012-12-13 12:38:12
  24. 0dew6silk registered @ 2012-12-13 12:38:36, last login @ 2012-12-13 12:38:36
  25. 0coinokra2 registered @ 2012-12-13 12:38:53, last login @ 2012-12-13 12:38:53
  26. 0colt35basin registered @ 2012-12-13 12:38:57, last login @ 2012-12-13 12:38:57
  27. 0lightconga9 registered @ 2012-12-13 12:39:15, last login @ 2012-12-13 12:39:15
  28. 0secureshake8 registered @ 2012-12-13 12:39:46, last login @ 2012-12-13 12:39:46
  29. 0dimple8pot registered @ 2012-12-13 12:40:12, last login @ 2012-12-13 12:40:12
  30. 0theoryselect6 registered @ 2012-12-13 12:41:04, last login @ 2012-12-13 12:41:04
  31. 0humega registered @ 2012-12-13 12:41:19, last login @ 2012-12-13 12:41:19
  32. 0africa6moat registered @ 2012-12-13 12:41:22, last login @ 2012-12-13 12:41:22
  33. 0bush9domain registered @ 2012-12-13 12:41:41, last login @ 2012-12-13 12:41:41
  34. 0locustbit28 registered @ 2012-12-13 12:42:59, last login @ 2012-12-13 12:42:59
  35. 0equail4cent registered @ 2012-12-13 12:43:40, last login @ 2012-12-13 12:43:40
  36. 0advice73alloy registered @ 2012-12-13 12:43:56, last login @ 2012-12-13 12:43:56
  37. 0advicemouth0 registered @ 2012-12-13 12:44:00, last login @ 2012-12-13 12:44:00
  38. 0maybail8 registered @ 2012-12-13 12:45:36, last login @ 2012-12-13 12:45:36
  39. 0packetlute69 registered @ 2012-12-13 12:45:51, last login @ 2012-12-13 12:45:51
  40. 0select9stool registered @ 2012-12-13 12:46:01, last login @ 2012-12-13 12:46:01
  41. 0donna1sharon registered @ 2012-12-13 12:46:52, last login @ 2012-12-13 12:46:52
  42. 0weapon6tie registered @ 2012-12-13 12:47:33, last login @ 2012-12-13 12:47:33
  43. 0pintseat0 registered @ 2012-12-13 12:48:17, last login @ 2012-12-13 12:48:17
  44. 0citylibra43 registered @ 2012-12-13 12:48:28, last login @ 2012-12-13 12:48:28
  45. 0legflute22 registered @ 2012-12-13 12:48:33, last login @ 2012-12-13 12:48:33
  46. 0sawquart6 registered @ 2012-12-13 12:48:33, last login @ 2012-12-13 12:48:33
  47. 0rake41toe registered @ 2012-12-13 12:48:39, last login @ 2012-12-13 12:48:39
  48. 0flavoralloy7 registered @ 2012-12-13 12:50:25, last login @ 2012-12-13 12:50:25
  49. 0RockyHOlivares registered @ 2012-12-13 12:50:39, last login @ 2012-12-13 12:58:08
  50. 0vkgpvniid registered @ 2012-12-13 12:54:43, last login @ 2012-12-13 12:54:43
  51. 0quart57bean registered @ 2012-12-13 12:55:19, last login @ 2012-12-13 12:55:19
  52. 0twistanger4 registered @ 2012-12-13 12:56:41, last login @ 2012-12-13 12:56:41
  53. 0delete9grouse registered @ 2012-12-13 12:57:17, last login @ 2012-12-13 12:57:17
  54. 0clef83bumper registered @ 2012-12-13 12:57:36, last login @ 2012-12-13 12:57:36
  55. 0yokejapan0 registered @ 2012-12-13 12:58:09, last login @ 2012-12-13 12:58:09
  56. 0neck0start registered @ 2012-12-13 12:58:11, last login @ 2012-12-13 12:58:11
  57. 0ddickens3 registered @ 2012-12-13 12:58:26, last login @ 2012-12-13 12:58:26
  58. 0danieljoke4 registered @ 2012-12-13 12:58:59, last login @ 2012-12-13 12:58:59
  59. 0closetnut69 registered @ 2012-12-13 13:02:02, last login @ 2012-12-13 13:02:02
  60. 0stone35porch registered @ 2012-12-13 13:03:38, last login @ 2012-12-13 13:03:38
  61. 0slimeidea9 registered @ 2012-12-13 13:05:03, last login @ 2012-12-13 13:05:03
  62. 0fatniece9 registered @ 2012-12-13 13:05:06, last login @ 2012-12-13 13:05:06
  63. 0newsmonkey4 registered @ 2012-12-13 13:05:54, last login @ 2012-12-13 13:05:54
  64. 0swing3liver registered @ 2012-12-13 13:06:17, last login @ 2012-12-13 13:06:17
  65. 0kendo83stool registered @ 2012-12-13 13:06:27, last login @ 2012-12-13 13:06:27
  66. 0indexdecade53 registered @ 2012-12-13 13:06:44, last login @ 2012-12-13 13:06:44
  67. 0mall81felony registered @ 2012-12-13 13:07:34, last login @ 2012-12-13 13:07:34
  68. 0fieldmenu8 registered @ 2012-12-13 13:08:15, last login @ 2012-12-13 13:08:15
  69. 0kitty44border registered @ 2012-12-13 13:08:44, last login @ 2012-12-13 13:08:44
  70. 0closetgrass3 registered @ 2012-12-13 13:08:45, last login @ 2012-12-13 13:08:45
  71. 0house45russia registered @ 2012-12-13 13:08:49, last login @ 2012-12-13 13:28:41
  72. 0Draven registered @ 2012-12-13 13:08:53, last login @ 2012-12-13 13:08:53
  73. 0coughvelvet63 registered @ 2012-12-13 13:10:15, last login @ 2012-12-13 13:10:15
  74. 0docksink29 registered @ 2012-12-13 13:10:49, last login @ 2012-12-13 13:10:49
  75. 0heightnylon0 registered @ 2012-12-13 13:10:52, last login @ 2012-12-13 13:10:52
  76. 0wealth3chain registered @ 2012-12-13 13:12:27, last login @ 2012-12-13 13:12:27
  77. 0house33priest registered @ 2012-12-13 13:12:52, last login @ 2012-12-13 13:12:52
  78. 0bowtemper72 registered @ 2012-12-13 13:13:24, last login @ 2012-12-13 13:13:24
  79. 0stepmelody2 registered @ 2012-12-13 13:13:49, last login @ 2012-12-13 13:13:49
  80. 0pigsweets81 registered @ 2012-12-13 13:14:23, last login @ 2012-12-13 13:14:23
  81. 0ox5canoe registered @ 2012-12-13 13:14:30, last login @ 2012-12-13 13:14:30
  82. 0rabbi0vest registered @ 2012-12-13 13:14:49, last login @ 2012-12-13 13:14:49
  83. 0drama0date registered @ 2012-12-13 13:15:07, last login @ 2012-12-13 13:15:07
  84. 0harpfarm0 registered @ 2012-12-13 13:15:16, last login @ 2012-12-13 13:15:16
  85. 0brass4orchid registered @ 2012-12-13 13:15:26, last login @ 2012-12-13 13:15:26
  86. 0tile5switch registered @ 2012-12-13 13:15:47, last login @ 2012-12-13 14:00:17
  87. 0frostgrape9 registered @ 2012-12-13 13:16:38, last login @ 2012-12-13 13:16:38
  88. 0helpdog83 registered @ 2012-12-13 13:17:52, last login @ 2012-12-13 13:17:52
  89. 0loss3syrup registered @ 2012-12-13 13:18:05, last login @ 2012-12-13 13:18:05
  90. 0cafe62desk registered @ 2012-12-13 13:18:15, last login @ 2012-12-13 13:18:15
  91. 0weight30cello registered @ 2012-12-13 13:18:35, last login @ 2012-12-13 13:18:35
  92. 0switchbra94 registered @ 2012-12-13 13:19:45, last login @ 2012-12-13 13:19:45
  93. 0grade6wave registered @ 2012-12-13 13:19:57, last login @ 2012-12-13 13:19:57
  94. 0ray4nancy registered @ 2012-12-13 13:20:20, last login @ 2012-12-13 13:20:20
  95. 0penbolt26 registered @ 2012-12-13 13:20:20, last login @ 2012-12-13 13:20:20
  96. 0bedplant6 registered @ 2012-12-13 13:21:16, last login @ 2012-12-13 13:21:16
  97. 0dew9wrench registered @ 2012-12-13 13:21:32, last login @ 2012-12-13 13:21:32
  98. 0tenorskiing3 registered @ 2012-12-13 13:21:43, last login @ 2012-12-13 13:21:43
  99. 0desiretower89 registered @ 2012-12-13 13:22:54, last login @ 2012-12-13 13:22:54
  100. 0pin3tanker registered @ 2012-12-13 13:23:06, last login @ 2012-12-13 13:23:06
  101. 0seasonboard04 registered @ 2012-12-13 13:23:48, last login @ 2012-12-13 13:23:48

More...

[4920] [4919] [4918] [4917] [4916] [4915] [4914] [4913] [4912] [4911] [4910] [4909] [4908] [4907] [4906] [4905] [4904] [4903] [4902] [4901] ...[1]
Back to Top